createdAt,value
2019-01-27T00:00:49.205Z,98303.90
2019-01-27T00:03:18.812Z,98297.20
2019-01-27T00:05:47.983Z,98295.75
2019-01-27T00:08:17.405Z,98282.06
2019-01-27T00:10:46.675Z,98276.38
2019-01-27T00:13:15.853Z,98275.42
2019-01-27T00:15:45.261Z,98278.63
2019-01-27T00:18:14.819Z,98276.81
2019-01-27T00:20:44.043Z,98270.90
2019-01-27T00:23:13.548Z,98267.55
2019-01-27T00:25:43.045Z,98270.17
2019-01-27T00:28:12.342Z,98267.14
2019-01-27T00:30:41.627Z,98251.77
2019-01-27T00:33:10.796Z,98251.69
2019-01-27T00:35:40.252Z,98241.33
2019-01-27T00:38:09.426Z,98241.33
2019-01-27T00:40:38.661Z,98237.27
2019-01-27T00:43:08.142Z,98229.03
2019-01-27T00:45:37.379Z,98225.19
2019-01-27T00:48:07.260Z,98217.05
2019-01-27T00:50:36.414Z,98206.70
2019-01-27T00:53:05.711Z,98196.66
2019-01-27T00:55:35.164Z,98193.59
2019-01-27T00:58:04.319Z,98182.39
2019-01-27T01:00:33.660Z,98179.77
2019-01-27T01:03:02.794Z,98177.32
2019-01-27T01:05:31.933Z,98166.39
2019-01-27T01:08:01.089Z,98153.78
2019-01-27T01:10:30.715Z,98152.42
2019-01-27T01:12:59.953Z,98139.88
2019-01-27T01:15:29.160Z,98134.36
2019-01-27T01:17:58.349Z,98130.80
2019-01-27T01:20:27.602Z,98124.24
2019-01-27T01:22:56.843Z,98116.88
2019-01-27T01:25:26.070Z,98117.33
2019-01-27T01:27:55.254Z,98111.31
2019-01-27T01:30:27.181Z,98103.50
2019-01-27T01:32:56.837Z,98099.70
2019-01-27T01:35:26.139Z,98102.63
2019-01-27T01:37:55.378Z,98096.63
2019-01-27T01:40:24.858Z,98089.80
2019-01-27T01:42:54.378Z,98090.66
2019-01-27T01:45:26.837Z,98092.92
2019-01-27T01:47:55.983Z,98082.92
2019-01-27T01:50:26.153Z,98076.33
2019-01-27T01:52:55.317Z,98081.48
2019-01-27T01:55:24.533Z,98068.25
2019-01-27T01:57:53.814Z,98068.69
2019-01-27T02:00:23.855Z,98067.02
2019-01-27T02:02:53.410Z,98068.08
2019-01-27T02:05:22.810Z,98052.41
2019-01-27T02:07:52.281Z,98048.06
2019-01-27T02:10:21.957Z,98042.60
2019-01-27T02:12:52.222Z,98030.00
2019-01-27T02:15:59.673Z,98027.89
2019-01-27T02:18:29.092Z,98022.42
2019-01-27T02:20:58.338Z,98015.99
2019-01-27T02:23:27.508Z,98008.89
2019-01-27T02:25:57.043Z,98002.97
2019-01-27T02:28:26.396Z,97995.69
2019-01-27T02:30:55.822Z,97992.56
2019-01-27T02:33:27.070Z,97986.33
2019-01-27T02:35:56.644Z,97973.77
2019-01-27T02:38:25.908Z,97973.03
2019-01-27T02:40:55.082Z,97963.21
2019-01-27T02:43:24.590Z,97961.00
2019-01-27T02:45:54.196Z,97947.94
2019-01-27T02:48:23.392Z,97949.48
2019-01-27T02:50:52.909Z,97944.70
2019-01-27T02:53:22.197Z,97945.09
2019-01-27T02:55:51.763Z,97935.19
2019-01-27T02:58:21.223Z,97933.59
2019-01-27T03:00:51.402Z,97924.08
2019-01-27T03:03:20.569Z,97925.09
2019-01-27T03:05:56.434Z,97915.41
2019-01-27T03:08:25.859Z,97921.27
2019-01-27T03:10:55.027Z,97909.82
2019-01-27T03:13:24.383Z,97906.42
2019-01-27T03:15:53.548Z,97901.45
2019-01-27T03:18:22.881Z,97897.63
2019-01-27T03:20:52.754Z,97893.31
2019-01-27T03:23:22.237Z,97892.01
2019-01-27T03:25:52.034Z,97882.83
2019-01-27T03:28:21.200Z,97877.52
2019-01-27T03:30:50.369Z,97872.12
2019-01-27T03:33:19.941Z,97864.98
2019-01-27T03:35:49.098Z,97862.02
2019-01-27T03:38:18.672Z,97847.27
2019-01-27T03:40:47.838Z,97848.19
2019-01-27T03:43:17.008Z,97852.45
2019-01-27T03:45:46.205Z,97844.09
2019-01-27T03:48:15.809Z,97844.83
2019-01-27T03:50:45.130Z,97845.40
2019-01-27T03:53:14.672Z,97831.72
2019-01-27T03:55:44.159Z,97837.39
2019-01-27T03:58:13.352Z,97825.80
2019-01-27T04:00:42.542Z,97825.91
2019-01-27T04:03:12.128Z,97814.61
2019-01-27T04:05:41.312Z,97807.09
2019-01-27T04:08:11.024Z,97798.76
2019-01-27T04:10:40.454Z,97788.13
2019-01-27T04:13:09.814Z,97791.77
2019-01-27T04:15:39.026Z,97786.92
2019-01-27T04:18:08.485Z,97785.52
2019-01-27T04:20:37.687Z,97787.59
2019-01-27T04:23:07.322Z,97779.06
2019-01-27T04:25:37.242Z,97781.61
2019-01-27T04:28:06.430Z,97767.53
2019-01-27T04:30:37.737Z,97762.05
2019-01-27T04:33:06.952Z,97760.37
2019-01-27T04:35:36.098Z,97762.49
2019-01-27T04:38:05.528Z,97762.83
2019-01-27T04:40:34.688Z,97749.99
2019-01-27T04:43:03.892Z,97741.09
2019-01-27T04:45:35.453Z,97735.94
2019-01-27T04:48:05.820Z,97730.25
2019-01-27T04:50:35.369Z,97731.27
2019-01-27T04:53:05.014Z,97726.59
2019-01-27T04:55:35.800Z,97726.75
2019-01-27T04:58:05.568Z,97718.49
2019-01-27T05:00:34.929Z,97717.89
2019-01-27T05:03:23.207Z,97717.00
2019-01-27T05:05:52.407Z,97715.13
2019-01-27T05:08:23.271Z,97714.89
2019-01-27T05:10:52.518Z,97712.50
2019-01-27T05:13:22.809Z,97708.57
2019-01-27T05:15:52.921Z,97701.21
2019-01-27T05:18:23.777Z,97707.50
2019-01-27T05:20:53.105Z,97706.93
2019-01-27T05:23:22.709Z,97693.64
2019-01-27T05:25:52.190Z,97689.66
2019-01-27T05:28:21.372Z,97689.98
2019-01-27T05:30:50.594Z,97694.66
2019-01-27T05:33:20.503Z,97679.25
2019-01-27T05:35:50.012Z,97683.93
2019-01-27T05:38:19.508Z,97680.48
2019-01-27T05:40:48.718Z,97670.55
2019-01-27T05:43:18.242Z,97671.06
2019-01-27T05:45:47.731Z,97683.91
2019-01-27T05:48:17.443Z,97671.03
2019-01-27T05:50:46.600Z,97672.05
2019-01-27T05:53:15.896Z,97664.62
2019-01-27T05:55:45.056Z,97664.89
2019-01-27T05:58:14.242Z,97655.57
2019-01-27T06:00:45.250Z,97654.17
2019-01-27T06:05:47.062Z,97637.78
2019-01-27T06:08:16.222Z,97646.45
2019-01-27T06:10:45.365Z,97644.93
2019-01-27T06:13:15.079Z,97640.02
2019-01-27T06:15:44.640Z,97642.78
2019-01-27T06:18:13.830Z,97642.97
2019-01-27T06:20:42.977Z,97629.86
2019-01-27T06:23:12.710Z,97633.05
2019-01-27T06:25:42.218Z,97618.06
2019-01-27T06:28:11.398Z,97634.09
2019-01-27T06:30:40.662Z,97629.02
2019-01-27T06:33:28.770Z,97629.86
2019-01-27T06:35:57.934Z,97635.40
2019-01-27T06:38:27.276Z,97625.09
2019-01-27T06:40:56.428Z,97613.59
2019-01-27T06:43:25.662Z,97614.02
2019-01-27T06:45:55.254Z,97611.51
2019-01-27T06:48:24.724Z,97609.04
2019-01-27T06:50:54.243Z,97607.88
2019-01-27T06:53:23.802Z,97602.46
2019-01-27T06:55:52.943Z,97602.30
2019-01-27T06:58:23.973Z,97601.89
2019-01-27T07:00:59.530Z,97605.86
2019-01-27T07:03:32.357Z,97597.78
2019-01-27T07:06:20.511Z,97596.98
2019-01-27T07:09:08.927Z,97596.47
2019-01-27T07:11:52.681Z,97592.00
2019-01-27T07:14:49.895Z,97589.14
2019-01-27T07:17:37.988Z,97589.44
2019-01-27T07:20:21.087Z,97583.04
2019-01-27T07:23:00.453Z,97583.36
2019-01-27T07:25:49.342Z,97583.72
2019-01-27T07:28:26.803Z,97581.66
2019-01-27T07:31:16.585Z,97577.32
2019-01-27T07:34:05.441Z,97573.47
2019-01-27T07:36:56.430Z,97575.20
2019-01-27T07:39:30.504Z,97574.72
2019-01-27T07:42:13.021Z,97569.80
2019-01-27T07:45:09.968Z,97570.80
2019-01-27T07:47:44.987Z,97564.45
2019-01-27T07:50:40.200Z,97572.58
2019-01-27T07:53:46.616Z,97563.38
2019-01-27T07:56:41.481Z,97565.77
2019-01-27T07:59:28.462Z,97561.62
2019-01-27T08:02:26.069Z,97558.67
2019-01-27T08:05:17.648Z,97551.85
2019-01-27T08:08:05.352Z,97549.28
2019-01-27T08:11:03.101Z,97559.00
2019-01-27T08:13:45.228Z,97551.32
2019-01-27T08:16:23.776Z,97554.69
2019-01-27T08:19:08.272Z,97554.13
2019-01-27T08:21:59.364Z,97560.39
2019-01-27T08:24:54.031Z,97557.50
2019-01-27T08:27:48.285Z,97560.30
2019-01-27T08:30:40.704Z,97561.03
2019-01-27T08:33:26.174Z,97554.20
2019-01-27T08:36:05.488Z,97549.55
2019-01-27T08:38:52.274Z,97556.59
2019-01-27T08:41:28.740Z,97543.45
2019-01-27T08:44:15.837Z,97554.47
2019-01-27T08:46:52.531Z,97556.32
2019-01-27T08:49:21.725Z,97550.09
2019-01-27T08:51:51.248Z,97550.09
2019-01-27T08:54:20.688Z,97549.17
2019-01-27T08:56:49.893Z,97551.89
2019-01-27T08:59:19.452Z,97543.33
2019-01-27T09:02:10.407Z,97540.05
2019-01-27T09:04:48.012Z,97543.61
2019-01-27T09:07:33.068Z,97540.63
2019-01-27T09:10:09.175Z,97543.00
2019-01-27T09:13:00.291Z,97535.67
2019-01-27T09:15:51.455Z,97538.31
2019-01-27T09:18:52.133Z,97539.31
2019-01-27T09:21:38.840Z,97541.69
2019-01-27T09:24:20.451Z,97541.69
2019-01-27T09:26:55.150Z,97540.31
2019-01-27T09:29:41.910Z,97541.30
2019-01-27T09:32:48.467Z,97541.30
2019-01-27T09:35:28.659Z,97540.23
2019-01-27T09:38:16.928Z,97549.71
2019-01-27T09:41:08.376Z,97542.11
2019-01-27T09:43:55.830Z,97536.44
2019-01-27T09:46:39.855Z,97534.98
2019-01-27T09:49:18.138Z,97533.50
2019-01-27T09:51:56.946Z,97536.63
2019-01-27T09:54:51.708Z,97533.74
2019-01-27T09:57:41.876Z,97535.67
2019-01-27T10:00:32.573Z,97536.25
2019-01-27T10:03:07.594Z,97538.52
2019-01-27T10:05:58.360Z,97532.74
2019-01-27T10:08:45.118Z,97538.05
2019-01-27T10:11:51.934Z,97536.92
2019-01-27T10:14:38.209Z,97536.05
2019-01-27T10:17:28.443Z,97537.05
2019-01-27T10:20:19.660Z,97538.67
2019-01-27T10:23:14.662Z,97536.83
2019-01-27T10:25:50.824Z,97534.45
2019-01-27T10:28:37.952Z,97531.06
2019-01-27T10:31:26.495Z,97530.80
2019-01-27T10:34:22.657Z,97531.51
2019-01-27T10:37:16.557Z,97531.80
2019-01-27T10:40:14.076Z,97522.51
2019-01-27T10:43:02.516Z,97523.39
2019-01-27T10:45:41.078Z,97520.13
2019-01-27T10:48:20.209Z,97516.32
2019-01-27T10:51:13.772Z,97517.00
2019-01-27T10:53:52.010Z,97513.26
2019-01-27T10:56:35.127Z,97515.08
2019-01-27T10:59:21.182Z,97510.38
2019-01-27T11:02:24.332Z,97506.52
2019-01-27T11:05:11.592Z,97499.51
2019-01-27T11:08:09.313Z,97503.38
2019-01-27T11:11:01.101Z,97501.72
2019-01-27T11:14:04.814Z,97501.65
2019-01-27T11:16:42.966Z,97500.02
2019-01-27T11:19:34.485Z,97502.56
2019-01-27T11:22:32.111Z,97493.41
2019-01-27T11:25:20.249Z,97500.63
2019-01-27T11:28:14.508Z,97495.69
2019-01-27T11:31:11.753Z,97486.00
2019-01-27T11:33:59.194Z,97492.95
2019-01-27T11:36:59.605Z,97488.37
2019-01-27T11:39:47.740Z,97485.77
2019-01-27T11:42:34.984Z,97485.08
2019-01-27T11:45:16.527Z,97477.27
2019-01-27T11:47:51.653Z,97480.47
2019-01-27T11:50:36.936Z,97479.89
2019-01-27T11:53:08.843Z,97476.59
2019-01-27T11:55:38.360Z,97468.03
2019-01-27T11:58:07.549Z,97475.63
2019-01-27T12:00:44.515Z,97466.67
2019-01-27T12:03:13.709Z,97465.26
2019-01-27T12:05:43.179Z,97465.02
2019-01-27T12:08:12.391Z,97466.17
2019-01-27T12:10:41.770Z,97463.14
2019-01-27T12:13:10.887Z,97462.37
2019-01-27T12:15:40.448Z,97466.06
2019-01-27T12:18:09.758Z,97463.51
2019-01-27T12:20:40.772Z,97463.45
2019-01-27T12:23:10.308Z,97460.06
2019-01-27T12:25:39.459Z,97457.95
2019-01-27T12:28:08.715Z,97459.09
2019-01-27T12:30:38.102Z,97453.34
2019-01-27T12:33:07.295Z,97453.25
2019-01-27T12:35:36.515Z,97455.93
2019-01-27T12:38:05.941Z,97461.03
2019-01-27T12:40:35.172Z,97457.84
2019-01-27T12:43:04.391Z,97454.97
2019-01-27T12:45:33.679Z,97461.25
2019-01-27T12:48:03.039Z,97456.78
2019-01-27T12:50:32.531Z,97465.45
2019-01-27T12:53:03.857Z,97464.96
2019-01-27T12:55:33.048Z,97457.16
2019-01-27T12:58:02.271Z,97467.72
2019-01-27T13:00:34.602Z,97464.45
2019-01-27T13:03:03.915Z,97468.14
2019-01-27T13:05:33.339Z,97465.55
2019-01-27T13:08:02.884Z,97469.33
2019-01-27T13:10:32.349Z,97465.73
2019-01-27T13:13:01.603Z,97467.64
2019-01-27T13:15:31.036Z,97471.68
2019-01-27T13:18:00.528Z,97466.62
2019-01-27T13:20:29.698Z,97467.98
2019-01-27T13:22:58.860Z,97475.86
2019-01-27T13:25:28.224Z,97470.95
2019-01-27T13:27:57.414Z,97474.79
2019-01-27T13:30:26.624Z,97475.02
2019-01-27T13:32:55.863Z,97472.45
2019-01-27T13:35:25.141Z,97476.45
2019-01-27T13:37:54.297Z,97478.63
2019-01-27T13:40:23.522Z,97481.86
2019-01-27T13:42:53.096Z,97476.81
2019-01-27T13:45:25.032Z,97480.80
2019-01-27T13:47:58.969Z,97472.05
2019-01-27T13:50:26.226Z,97477.78
2019-01-27T13:52:55.916Z,97476.60
2019-01-27T13:55:27.193Z,97474.66
2019-01-27T13:57:56.470Z,97481.13
2019-01-27T14:00:31.059Z,97479.45
2019-01-27T14:03:00.587Z,97486.30
2019-01-27T14:05:30.193Z,97477.95
2019-01-27T14:08:00.826Z,97501.30
2019-01-27T14:10:30.846Z,97496.39
2019-01-27T14:12:59.965Z,97502.72
2019-01-27T14:15:31.248Z,97513.12
2019-01-27T14:18:00.415Z,97512.38
2019-01-27T14:20:30.004Z,97515.18
2019-01-27T14:22:59.507Z,97525.36
2019-01-27T14:25:29.664Z,97529.52
2019-01-27T14:27:59.331Z,97535.74
2019-01-27T14:30:30.776Z,97537.52
2019-01-27T14:33:00.365Z,97541.39
2019-01-27T14:35:29.532Z,97544.22
2019-01-27T14:37:59.226Z,97556.56
2019-01-27T14:40:30.730Z,97567.08
2019-01-27T14:43:00.962Z,97575.02
2019-01-27T14:45:31.241Z,97581.72
2019-01-27T14:48:00.547Z,97586.00
2019-01-27T14:50:31.935Z,97583.66
2019-01-27T14:53:03.129Z,97580.81
2019-01-27T14:55:32.637Z,97593.44
2019-01-27T14:58:02.151Z,97597.63
2019-01-27T15:00:36.404Z,97596.68
2019-01-27T15:03:05.573Z,97592.61
2019-01-27T15:05:34.755Z,97605.09
2019-01-27T15:08:04.014Z,97609.72
2019-01-27T15:10:33.646Z,97609.76
2019-01-27T15:13:03.059Z,97617.91
2019-01-27T15:15:32.274Z,97619.77
2019-01-27T15:18:01.748Z,97616.08
2019-01-27T15:20:33.642Z,97626.88
2019-01-27T15:23:03.053Z,97630.58
2019-01-27T15:25:32.407Z,97629.77
2019-01-27T15:28:03.456Z,97631.66
2019-01-27T15:30:33.346Z,97635.53
2019-01-27T15:33:02.551Z,97644.07
2019-01-27T15:35:32.171Z,97641.55
2019-01-27T15:38:01.340Z,97652.58
2019-01-27T15:40:30.655Z,97654.66
2019-01-27T15:42:59.854Z,97660.77
2019-01-27T15:45:29.742Z,97666.50
2019-01-27T15:47:59.403Z,97666.49
2019-01-27T15:50:31.473Z,97671.47
2019-01-27T15:53:00.757Z,97676.50
2019-01-27T15:55:29.920Z,97673.77
2019-01-27T15:57:59.589Z,97677.25
2019-01-27T16:00:30.209Z,97681.39
2019-01-27T16:02:59.363Z,97684.77
2019-01-27T16:05:28.903Z,97690.59
2019-01-27T16:07:58.454Z,97694.52
2019-01-27T16:10:27.898Z,97694.30
2019-01-27T16:12:57.351Z,97691.65
2019-01-27T16:15:31.140Z,97697.02
2019-01-27T16:18:00.549Z,97706.41
2019-01-27T16:20:29.970Z,97716.45
2019-01-27T16:23:18.315Z,97716.77
2019-01-27T16:25:47.675Z,97718.29
2019-01-27T16:28:18.318Z,97721.63
2019-01-27T16:31:05.176Z,97717.62
2019-01-27T16:33:42.652Z,97726.05
2019-01-27T16:36:12.628Z,97732.58
2019-01-27T16:38:41.820Z,97737.94
2019-01-27T16:41:10.962Z,97731.27
2019-01-27T16:43:40.138Z,97733.72
2019-01-27T16:46:09.683Z,97738.36
2019-01-27T16:48:38.916Z,97735.97
2019-01-27T16:51:08.482Z,97737.99
2019-01-27T16:53:37.986Z,97743.88
2019-01-27T16:56:07.169Z,97747.94
2019-01-27T16:58:36.600Z,97742.44
2019-01-27T17:01:06.396Z,97748.52
2019-01-27T17:03:36.261Z,97748.89
2019-01-27T17:06:05.530Z,97742.22
2019-01-27T17:08:34.758Z,97757.53
2019-01-27T17:11:03.964Z,97753.89
2019-01-27T17:13:33.095Z,97764.12
2019-01-27T17:16:02.749Z,97766.78
2019-01-27T17:18:31.914Z,97760.97
2019-01-27T17:21:01.213Z,97762.67
2019-01-27T17:23:32.260Z,97769.26
2019-01-27T17:26:01.560Z,97766.78
2019-01-27T17:28:31.073Z,97772.86
2019-01-27T17:31:00.260Z,97770.20
2019-01-27T17:33:29.483Z,97769.83
2019-01-27T17:35:58.742Z,97772.09
2019-01-27T17:38:27.945Z,97777.81
2019-01-27T17:40:57.346Z,97776.78
2019-01-27T17:43:26.991Z,97775.92
2019-01-27T17:45:56.524Z,97767.50
2019-01-27T17:48:25.733Z,97784.58
2019-01-27T17:50:55.148Z,97788.19
2019-01-27T17:53:24.481Z,97787.49
2019-01-27T17:55:54.008Z,97794.66
2019-01-27T17:58:54.298Z,97783.63
2019-01-27T18:01:48.334Z,97787.49
2019-01-27T18:04:35.549Z,97787.41
2019-01-27T18:07:23.176Z,97791.41
2019-01-27T18:10:14.566Z,97792.56
2019-01-27T18:12:49.075Z,97800.55
2019-01-27T18:15:18.260Z,97805.06
2019-01-27T18:17:47.857Z,97799.88
2019-01-27T18:20:17.572Z,97803.52
2019-01-27T18:22:46.735Z,97799.89
2019-01-27T18:25:16.767Z,97814.59
2019-01-27T18:27:45.932Z,97808.72
2019-01-27T18:30:21.243Z,97813.35
2019-01-27T18:32:50.518Z,97813.78
2019-01-27T18:35:20.516Z,97815.53
2019-01-27T18:37:50.050Z,97813.33
2019-01-27T18:40:19.228Z,97818.83
2019-01-27T18:42:49.766Z,97816.66
2019-01-27T18:45:19.400Z,97813.17
2019-01-27T18:47:48.564Z,97820.13
2019-01-27T18:50:19.256Z,97819.59
2019-01-27T18:52:50.886Z,97822.61
2019-01-27T18:55:48.722Z,97823.20
2019-01-27T18:58:34.640Z,97834.50
2019-01-27T19:01:35.976Z,97828.95
2019-01-27T19:04:24.548Z,97823.20
2019-01-27T19:07:16.661Z,97821.34
2019-01-27T19:10:04.151Z,97829.17
2019-01-27T19:12:56.238Z,97825.41
2019-01-27T19:15:42.058Z,97828.55
2019-01-27T19:18:22.558Z,97826.00
2019-01-27T19:21:29.348Z,97828.95
2019-01-27T19:24:22.212Z,97824.17
2019-01-27T19:27:06.438Z,97824.34
2019-01-27T19:29:54.096Z,97819.78
2019-01-27T19:32:30.632Z,97826.73
2019-01-27T19:35:31.085Z,97827.11
2019-01-27T19:38:22.691Z,97824.29
2019-01-27T19:41:08.562Z,97827.80
2019-01-27T19:43:57.624Z,97827.25
2019-01-27T19:46:47.510Z,97825.16
2019-01-27T19:49:29.622Z,97825.50
2019-01-27T19:52:04.669Z,97825.29
2019-01-27T19:54:48.735Z,97831.50
2019-01-27T19:57:49.948Z,97822.73
2019-01-27T20:00:27.809Z,97824.45
2019-01-27T20:03:28.344Z,97823.09
2019-01-27T20:06:16.139Z,97822.98
2019-01-27T20:09:11.632Z,97832.12
2019-01-27T20:12:03.129Z,97829.79
2019-01-27T20:15:10.129Z,97830.64
2019-01-27T20:18:03.151Z,97829.03
2019-01-27T20:20:50.270Z,97823.58
2019-01-27T20:23:37.407Z,97823.23
2019-01-27T20:26:38.287Z,97812.33
2019-01-27T20:29:19.668Z,97817.58
2019-01-27T20:32:04.560Z,97816.20
2019-01-27T20:34:53.140Z,97819.34
2019-01-27T20:37:35.592Z,97819.77
2019-01-27T20:40:31.811Z,97816.59
2019-01-27T20:43:08.856Z,97817.92
2019-01-27T20:45:53.683Z,97812.50
2019-01-27T20:48:48.683Z,97805.19
2019-01-27T20:51:37.825Z,97811.15
2019-01-27T20:54:23.779Z,97801.10
2019-01-27T20:57:06.708Z,97796.31
2019-01-27T20:59:57.906Z,97794.34
2019-01-27T21:02:39.726Z,97802.07
2019-01-27T21:05:27.762Z,97802.03
2019-01-27T21:08:19.354Z,97790.23
2019-01-27T21:11:08.255Z,97788.55
2019-01-27T21:13:44.388Z,97791.41
2019-01-27T21:16:38.628Z,97790.00
2019-01-27T21:19:15.164Z,97784.67
2019-01-27T21:21:45.131Z,97784.47
2019-01-27T21:24:14.708Z,97786.05
2019-01-27T21:26:44.173Z,97784.91
2019-01-27T21:29:13.585Z,97777.45
2019-01-27T21:31:43.120Z,97778.83
2019-01-27T21:34:12.607Z,97779.48
2019-01-27T21:36:41.834Z,97778.88
2019-01-27T21:39:12.591Z,97777.52
2019-01-27T21:41:42.260Z,97775.66
2019-01-27T21:44:11.806Z,97768.16
2019-01-27T21:46:41.353Z,97765.92
2019-01-27T21:49:10.514Z,97765.20
2019-01-27T21:51:40.095Z,97758.91
2019-01-27T21:54:09.259Z,97767.45
2019-01-27T21:56:39.669Z,97760.09
2019-01-27T21:59:08.862Z,97755.89
2019-01-27T22:01:39.499Z,97758.44
2019-01-27T22:04:09.035Z,97749.80
2019-01-27T22:06:38.615Z,97753.59
2019-01-27T22:09:09.586Z,97755.30
2019-01-27T22:11:38.826Z,97750.98
2019-01-27T22:14:08.212Z,97746.25
2019-01-27T22:16:39.184Z,97738.92
2019-01-27T22:19:10.578Z,97741.41
2019-01-27T22:21:40.306Z,97738.94
2019-01-27T22:24:09.445Z,97733.14
2019-01-27T22:26:38.664Z,97735.17
2019-01-27T22:29:08.532Z,97725.33
2019-01-27T22:31:37.713Z,97733.38
2019-01-27T22:34:06.946Z,97731.04
2019-01-27T22:36:36.120Z,97725.45
2019-01-27T22:39:08.314Z,97717.64
2019-01-27T22:41:37.596Z,97723.45
2019-01-27T22:44:06.785Z,97715.03
2019-01-27T22:46:36.277Z,97708.92
2019-01-27T22:49:06.319Z,97710.25
2019-01-27T22:51:35.650Z,97709.80
2019-01-27T22:54:05.326Z,97706.61
2019-01-27T22:56:34.785Z,97708.22
2019-01-27T22:59:03.966Z,97702.92
2019-01-27T23:04:23.400Z,97694.86
2019-01-27T23:06:52.590Z,97704.81
2019-01-27T23:09:22.316Z,97688.34
2019-01-27T23:11:52.067Z,97695.95
2019-01-27T23:14:21.477Z,97695.50
2019-01-27T23:16:50.657Z,97693.92
2019-01-27T23:19:19.848Z,97680.15
2019-01-27T23:21:49.109Z,97685.73
2019-01-27T23:24:18.544Z,97684.56
2019-01-27T23:26:47.865Z,97695.73
2019-01-27T23:29:17.038Z,97682.45
2019-01-27T23:31:46.204Z,97689.06
2019-01-27T23:34:16.156Z,97685.73
2019-01-27T23:36:47.185Z,97684.42
2019-01-27T23:39:16.363Z,97693.42
2019-01-27T23:41:45.582Z,97682.41
2019-01-27T23:44:15.117Z,97687.04
2019-01-27T23:46:44.297Z,97687.17
2019-01-27T23:49:13.964Z,97680.01
2019-01-27T23:51:43.615Z,97692.56
2019-01-27T23:54:12.811Z,97681.67
2019-01-27T23:56:42.320Z,97684.65
2019-01-27T23:59:12.155Z,97687.09
